Time;durP1;ratioP1;P1;durP2;ratioP2;P2;SDS_P1;SDS_P2;PMS_P1;PMS_P2;Temp;Humidity;BMP_temperature;BMP_pressure;BME280_temperature;BME280_humidity;BME280_pressure;Samples;Min_cycle;Max_cycle;Signal;HPM_P1;HPM_P2
2023/08/27 00:01:13;;;;;;;;;;;23.40;99.90;;;;;;5072816;28;20247;-70
2023/08/27 00:03:40;;;;;;;;;;;23.80;99.90;;;;;;5073063;28;20162;-71
2023/08/27 00:06:07;;;;;;;;;;;24.40;99.90;;;;;;5071332;28;20636;-69
2023/08/27 00:08:34;;;;;;;;;;;24.10;99.90;;;;;;5071790;28;20209;-71
2023/08/27 00:11:03;;;;;;;;;;;24.00;99.90;;;;;;5073325;28;20160;-69
2023/08/27 00:13:30;;;;;;;;;;;24.40;99.90;;;;;;5072735;28;20184;-70
2023/08/27 00:15:57;;;;;;;;;;;23.70;99.90;;;;;;5073016;28;20176;-70
2023/08/27 00:18:28;;;;;;;;;;;23.80;99.90;;;;;;5073877;28;20248;-70
2023/08/27 00:20:55;;;;;;;;;;;24.30;99.90;;;;;;5113393;28;20222;-70
2023/08/27 00:23:22;;;;;;;;;;;24.20;99.90;;;;;;5113379;28;20198;-69
2023/08/27 00:25:48;;;;;;;;;;;24.00;99.90;;;;;;5113198;28;20198;-71
2023/08/27 00:28:15;;;;;;;;;;;24.30;99.90;;;;;;5094730;28;20675;-71
2023/08/27 00:30:43;;;;;;;;;;;25.00;99.90;;;;;;5113857;28;20494;-70
2023/08/27 00:33:10;;;;;;;;;;;25.30;99.90;;;;;;5113224;28;20184;-69
2023/08/27 00:35:37;;;;;;;;;;;25.50;99.90;;;;;;5113006;28;20140;-70
2023/08/27 00:38:07;;;;;;;;;;;25.10;99.90;;;;;;5113822;28;20233;-71
2023/08/27 00:40:34;;;;;;;;;;;24.80;99.90;;;;;;5112865;28;20181;-71
2023/08/27 00:43:02;;;;;;;;;;;24.70;99.90;;;;;;5112447;28;20164;-70
2023/08/27 00:45:32;;;;;;;;;;;24.80;99.90;;;;;;5113515;28;20221;-71
2023/08/27 00:47:59;;;;;;;;;;;25.00;99.90;;;;;;5112977;28;20204;-70
2023/08/27 00:50:27;;;;;;;;;;;25.00;99.90;;;;;;5112660;28;20185;-70
2023/08/27 00:52:57;;;;;;;;;;;24.60;99.90;;;;;;5112177;28;20165;-70
2023/08/27 00:55:24;;;;;;;;;;;24.40;99.90;;;;;;5113301;28;20217;-73
2023/08/27 00:57:51;;;;;;;;;;;25.20;99.90;;;;;;5112712;28;20187;-73
2023/08/27 01:00:19;;;;;;;;;;;25.70;99.90;;;;;;5113094;28;20238;-69
2023/08/27 01:02:47;;;;;;;;;;;26.00;99.90;;;;;;5113151;28;20170;-72
2023/08/27 01:05:15;;;;;;;;;;;26.10;99.90;;;;;;5112718;28;20157;-70
2023/08/27 01:08:07;;;;;;;;;;;25.50;99.90;;;;;;5112728;28;20658;-71
2023/08/27 01:10:51;;;;;;;;;;;25.60;99.90;;;;;;5105028;28;20163;-69
2023/08/27 01:13:23;;;;;;;;;;;25.20;99.90;;;;;;5112549;28;20226;-71
2023/08/27 01:15:55;;;;;;;;;;;24.80;99.90;;;;;;5112414;28;20161;-67
2023/08/27 01:18:22;;;;;;;;;;;25.10;99.90;;;;;;5112219;28;20163;-69
2023/08/27 01:20:49;;;;;;;;;;;25.80;99.90;;;;;;5111989;28;20252;-69
2023/08/27 01:23:16;;;;;;;;;;;25.80;99.90;;;;;;5112517;28;20177;-68
2023/08/27 01:25:45;;;;;;;;;;;25.20;99.90;;;;;;5112604;28;20187;-70
2023/08/27 01:28:20;;;;;;;;;;;25.40;99.90;;;;;;5111923;28;20637;-70
2023/08/27 01:30:54;;;;;;;;;;;25.60;99.90;;;;;;5112217;28;20211;-68
2023/08/27 01:33:25;;;;;;;;;;;25.50;99.90;;;;;;5093597;28;20732;-70
2023/08/27 01:35:52;;;;;;;;;;;26.20;99.90;;;;;;5111526;28;20170;-70
2023/08/27 01:38:19;;;;;;;;;;;26.70;97.50;;;;;;5111631;28;20666;-72
2023/08/27 01:40:53;;;;;;;;;;;26.10;99.50;;;;;;5111646;28;20170;-71
2023/08/27 01:43:20;;;;;;;;;;;26.10;97.30;;;;;;5111450;28;20489;-71
2023/08/27 01:45:50;;;;;;;;;;;26.30;96.60;;;;;;5112290;28;20308;-71
2023/08/27 01:48:17;;;;;;;;;;;26.10;95.80;;;;;;5112880;28;20644;-70
2023/08/27 01:50:44;;;;;;;;;;;25.90;96.90;;;;;;5111727;28;20173;-71
2023/08/27 01:53:18;;;;;;;;;;;26.00;97.40;;;;;;5111337;28;20595;-71
2023/08/27 01:55:45;;;;;;;;;;;25.70;98.20;;;;;;5111325;28;20188;-70
2023/08/27 01:58:12;;;;;;;;;;;25.10;99.80;;;;;;5108951;28;20778;-72
2023/08/27 02:00:39;;;;;;;;;;;24.80;99.70;;;;;;5111166;28;20754;-70
2023/08/27 02:03:06;;;;;;;;;;;24.90;99.70;;;;;;5111702;28;20158;-71
2023/08/27 02:05:33;;;;;;;;;;;25.30;99.90;;;;;;5111359;28;20182;-72
2023/08/27 02:08:00;;;;;;;;;;;25.20;99.90;;;;;;5111336;28;20485;-72
2023/08/27 02:10:27;;;;;;;;;;;25.40;97.30;;;;;;5112031;28;20153;-72
2023/08/27 02:12:54;;;;;;;;;;;25.30;97.90;;;;;;5111088;28;20171;-72
2023/08/27 02:15:21;;;;;;;;;;;25.70;98.20;;;;;;5111023;28;20180;-72
2023/08/27 02:17:50;;;;;;;;;;;26.30;96.10;;;;;;5111368;28;20170;-70
2023/08/27 02:20:17;;;;;;;;;;;26.40;89.60;;;;;;5110915;28;20236;-70
2023/08/27 02:22:44;;;;;;;;;;;26.10;89.80;;;;;;5111788;28;20154;-72
2023/08/27 02:25:14;;;;;;;;;;;26.20;93.00;;;;;;5112237;28;20193;-70
2023/08/27 02:27:44;;;;;;;;;;;26.10;91.90;;;;;;5112888;28;20177;-69
2023/08/27 02:30:11;;;;;;;;;;;25.50;92.10;;;;;;5112723;28;20206;-71
2023/08/27 02:32:38;;;;;;;;;;;26.00;91.60;;;;;;5112507;28;20201;-70
2023/08/27 02:35:14;;;;;;;;;;;25.70;93.50;;;;;;5095180;28;20166;-70
2023/08/27 02:37:40;;;;;;;;;;;25.60;93.00;;;;;;5112999;28;20222;-69
2023/08/27 02:40:08;;;;;;;;;;;25.90;90.80;;;;;;5112508;28;20173;-69
2023/08/27 02:42:34;;;;;;;;;;;26.40;91.70;;;;;;5112293;28;20157;-70
2023/08/27 02:45:01;;;;;;;;;;;26.50;91.20;;;;;;5112488;28;20165;-70
2023/08/27 02:47:28;;;;;;;;;;;26.30;92.10;;;;;;5112544;28;20206;-70
2023/08/27 02:49:55;;;;;;;;;;;26.80;92.70;;;;;;5112664;28;20208;-70
2023/08/27 02:52:22;;;;;;;;;;;27.00;81.60;;;;;;5112740;28;20142;-71
2023/08/27 02:54:49;;;;;;;;;;;26.80;84.70;;;;;;5112636;28;20163;-70
2023/08/27 02:57:16;;;;;;;;;;;27.20;87.70;;;;;;5113595;28;20305;-70
2023/08/27 02:59:42;;;;;;;;;;;27.50;88.00;;;;;;5113019;28;20180;-71
2023/08/27 03:02:09;;;;;;;;;;;27.90;84.90;;;;;;5113229;28;20220;-71
2023/08/27 03:04:36;;;;;;;;;;;28.00;78.00;;;;;;5113477;28;20167;-70
2023/08/27 03:07:03;;;;;;;;;;;28.20;78.80;;;;;;5113535;28;20194;-72
2023/08/27 03:09:30;;;;;;;;;;;27.70;64.20;;;;;;5112414;28;20183;-71
2023/08/27 03:11:57;;;;;;;;;;;27.20;56.10;;;;;;5112059;28;20149;-71
2023/08/27 03:14:24;;;;;;;;;;;26.40;59.10;;;;;;5112383;28;20146;-69
2023/08/27 03:16:51;;;;;;;;;;;26.00;62.50;;;;;;5112479;28;20619;-70
2023/08/27 03:19:18;;;;;;;;;;;26.30;61.90;;;;;;5111922;28;20570;-71
2023/08/27 03:21:45;;;;;;;;;;;26.30;64.60;;;;;;5112383;28;20191;-70
2023/08/27 03:24:11;;;;;;;;;;;26.20;66.30;;;;;;5094333;28;20686;-71
2023/08/27 03:26:38;;;;;;;;;;;25.30;67.80;;;;;;5112632;28;20155;-71
2023/08/27 03:29:05;;;;;;;;;;;25.20;67.60;;;;;;5113028;28;20242;-70
2023/08/27 03:31:32;;;;;;;;;;;25.40;73.80;;;;;;5112629;28;20184;-71
2023/08/27 03:33:59;;;;;;;;;;;26.20;71.20;;;;;;5113258;28;20484;-72
2023/08/27 03:36:26;;;;;;;;;;;26.60;68.20;;;;;;5113520;28;20629;-71
2023/08/27 03:38:54;;;;;;;;;;;27.10;64.80;;;;;;5112815;28;20184;-70
2023/08/27 03:41:21;;;;;;;;;;;27.40;66.10;;;;;;5112720;28;20557;-71
2023/08/27 03:43:48;;;;;;;;;;;27.50;63.10;;;;;;5115969;28;20252;-72
2023/08/27 03:46:15;;;;;;;;;;;26.90;65.40;;;;;;5116152;28;20225;-71
2023/08/27 03:48:42;;;;;;;;;;;26.00;63.20;;;;;;5115142;28;20225;-71
2023/08/27 03:51:11;;;;;;;;;;;25.10;67.80;;;;;;5110053;28;20576;-69
2023/08/27 03:53:38;;;;;;;;;;;24.60;75.20;;;;;;5096175;28;20496;-70
2023/08/27 03:56:05;;;;;;;;;;;24.60;78.40;;;;;;5095108;28;20150;-70
2023/08/27 03:58:32;;;;;;;;;;;25.10;72.50;;;;;;5110048;28;20171;-71
2023/08/27 04:00:59;;;;;;;;;;;25.60;80.50;;;;;;5113723;28;20202;-70
2023/08/27 04:03:26;;;;;;;;;;;26.10;74.20;;;;;;5113881;28;20492;-71
2023/08/27 04:05:53;;;;;;;;;;;26.50;70.10;;;;;;5114219;28;20173;-71
2023/08/27 04:08:21;;;;;;;;;;;26.90;68.80;;;;;;5114119;28;20198;-70
2023/08/27 04:10:48;;;;;;;;;;;26.80;70.10;;;;;;5113032;28;20179;-70
2023/08/27 04:13:16;;;;;;;;;;;25.80;65.40;;;;;;5112854;28;20172;-70
2023/08/27 04:15:43;;;;;;;;;;;24.90;70.40;;;;;;5113175;28;20898;-71
2023/08/27 04:18:10;;;;;;;;;;;24.30;77.50;;;;;;5113196;28;20183;-70
2023/08/27 04:20:36;;;;;;;;;;;23.90;91.50;;;;;;5112020;28;20274;-70
2023/08/27 04:23:03;;;;;;;;;;;23.40;97.30;;;;;;5113424;28;20136;-70
2023/08/27 04:25:30;;;;;;;;;;;23.00;99.90;;;;;;5113631;28;20636;-70
2023/08/27 04:27:57;;;;;;;;;;;22.70;99.90;;;;;;5113496;28;20203;-70
2023/08/27 04:30:24;;;;;;;;;;;22.40;99.90;;;;;;5113271;28;20149;-70
2023/08/27 04:32:51;;;;;;;;;;;22.20;99.90;;;;;;5094145;28;20211;-72
2023/08/27 04:35:18;;;;;;;;;;;22.10;99.90;;;;;;5112500;28;20155;-69
2023/08/27 04:37:45;;;;;;;;;;;22.20;99.90;;;;;;5112562;28;20497;-70
2023/08/27 04:40:12;;;;;;;;;;;22.30;99.90;;;;;;5112567;28;20286;-71
2023/08/27 04:42:39;;;;;;;;;;;22.30;99.90;;;;;;5113446;28;20381;-72
2023/08/27 04:45:06;;;;;;;;;;;22.20;99.90;;;;;;5112950;28;20192;-69
2023/08/27 04:47:33;;;;;;;;;;;22.00;99.90;;;;;;5113503;28;20187;-70
2023/08/27 04:50:00;;;;;;;;;;;21.90;99.90;;;;;;5112790;28;20159;-68
2023/08/27 04:52:27;;;;;;;;;;;21.90;99.90;;;;;;5113383;28;20514;-69
2023/08/27 04:54:55;;;;;;;;;;;21.80;99.90;;;;;;5112673;28;20501;-69
2023/08/27 04:57:22;;;;;;;;;;;22.30;99.90;;;;;;5111633;28;20198;-70
2023/08/27 04:59:49;;;;;;;;;;;22.80;99.90;;;;;;5112030;28;20173;-69
2023/08/27 05:02:15;;;;;;;;;;;23.10;99.90;;;;;;5112169;28;20205;-69
2023/08/27 05:04:44;;;;;;;;;;;23.40;99.90;;;;;;5112376;28;20163;-71
2023/08/27 05:07:11;;;;;;;;;;;23.50;99.90;;;;;;5111408;28;20191;-69
2023/08/27 05:09:38;;;;;;;;;;;23.40;99.90;;;;;;5113161;28;20217;-69
2023/08/27 05:12:05;;;;;;;;;;;23.20;99.90;;;;;;5112227;28;20181;-70
2023/08/27 05:14:31;;;;;;;;;;;23.20;99.90;;;;;;5112911;28;20186;-72
2023/08/27 05:16:58;;;;;;;;;;;22.80;99.90;;;;;;5112476;28;20189;-70
2023/08/27 05:19:25;;;;;;;;;;;22.50;99.90;;;;;;5111573;28;20214;-70
2023/08/27 05:21:52;;;;;;;;;;;22.40;99.90;;;;;;5112242;28;20217;-70
2023/08/27 05:24:19;;;;;;;;;;;22.30;99.90;;;;;;5093670;28;20602;-69
2023/08/27 05:26:46;;;;;;;;;;;22.40;99.90;;;;;;5093700;28;20569;-71
2023/08/27 05:29:13;;;;;;;;;;;22.30;99.90;;;;;;5111881;28;20513;-71
2023/08/27 05:31:39;;;;;;;;;;;22.30;99.90;;;;;;5112431;28;20163;-71
2023/08/27 05:34:06;;;;;;;;;;;22.30;99.90;;;;;;5113408;28;20623;-71
2023/08/27 05:36:33;;;;;;;;;;;22.30;99.90;;;;;;5113272;28;20685;-71
2023/08/27 05:39:05;;;;;;;;;;;22.40;99.90;;;;;;5114627;28;20555;-70
2023/08/27 05:41:32;;;;;;;;;;;22.20;99.90;;;;;;5114477;28;20200;-69
2023/08/27 05:43:59;;;;;;;;;;;22.10;99.90;;;;;;5114430;28;20191;-70
2023/08/27 05:46:26;;;;;;;;;;;22.00;99.90;;;;;;5114109;28;20222;-69
2023/08/27 05:48:53;;;;;;;;;;;22.00;99.90;;;;;;5113863;28;20265;-71
2023/08/27 05:51:20;;;;;;;;;;;21.90;99.90;;;;;;5090420;28;20178;-70
2023/08/27 05:53:48;;;;;;;;;;;21.80;99.90;;;;;;5112122;28;20186;-68
2023/08/27 05:56:15;;;;;;;;;;;21.70;99.90;;;;;;5111314;28;20273;-69
2023/08/27 05:58:42;;;;;;;;;;;21.60;99.90;;;;;;5111391;28;20896;-69
2023/08/27 06:01:09;;;;;;;;;;;21.50;99.90;;;;;;5111991;28;20811;-71
2023/08/27 06:03:36;;;;;;;;;;;21.40;99.90;;;;;;5111557;28;20177;-72
2023/08/27 06:06:03;;;;;;;;;;;21.20;99.90;;;;;;5110129;28;20544;-72
2023/08/27 06:08:30;;;;;;;;;;;20.90;99.90;;;;;;5111854;28;20170;-69
2023/08/27 06:10:57;;;;;;;;;;;20.70;99.90;;;;;;5111614;28;20197;-70
2023/08/27 06:13:24;;;;;;;;;;;20.60;99.90;;;;;;5111196;28;20637;-70
2023/08/27 06:15:51;;;;;;;;;;;20.40;99.90;;;;;;5111220;28;20165;-69
2023/08/27 06:18:18;;;;;;;;;;;20.30;99.90;;;;;;5111233;28;20153;-70
2023/08/27 06:20:44;;;;;;;;;;;20.20;99.90;;;;;;5109997;28;20217;-71
2023/08/27 06:23:12;;;;;;;;;;;20.10;99.90;;;;;;5110842;28;20171;-70
2023/08/27 06:25:39;;;;;;;;;;;20.00;99.90;;;;;;5111025;28;20163;-70
2023/08/27 06:28:06;;;;;;;;;;;20.00;99.90;;;;;;5110508;28;20166;-71
2023/08/27 06:30:33;;;;;;;;;;;19.90;99.90;;;;;;5092854;28;20131;-71
2023/08/27 06:33:00;;;;;;;;;;;19.90;99.90;;;;;;5110666;28;20167;-71
2023/08/27 06:35:27;;;;;;;;;;;19.80;99.90;;;;;;5110466;28;20190;-70
2023/08/27 06:40:58;;;;;;;;;;;19.80;99.90;;;;;;5109762;28;20206;-71
2023/08/27 06:43:25;;;;;;;;;;;19.70;99.90;;;;;;5110285;28;20146;-71
2023/08/27 06:45:52;;;;;;;;;;;19.70;99.90;;;;;;5110668;28;20134;-70
2023/08/27 06:48:19;;;;;;;;;;;19.70;99.90;;;;;;5110980;28;20167;-70
2023/08/27 06:50:46;;;;;;;;;;;19.60;99.90;;;;;;5110508;28;20169;-70
2023/08/27 06:53:12;;;;;;;;;;;19.60;99.90;;;;;;5110740;28;20157;-70
2023/08/27 06:55:39;;;;;;;;;;;19.50;99.90;;;;;;5110582;28;20267;-71
2023/08/27 06:58:06;;;;;;;;;;;19.50;99.90;;;;;;5110521;28;20130;-70
2023/08/27 07:00:34;;;;;;;;;;;19.40;99.90;;;;;;5110365;28;20167;-70
2023/08/27 07:03:00;;;;;;;;;;;19.40;99.90;;;;;;5110565;28;20162;-70
2023/08/27 07:05:30;;;;;;;;;;;19.30;99.90;;;;;;5092102;28;20137;-72
2023/08/27 07:07:57;;;;;;;;;;;19.20;99.90;;;;;;5110096;28;20153;-71
2023/08/27 07:10:24;;;;;;;;;;;19.20;99.90;;;;;;5110556;28;20161;-69
2023/08/27 07:12:52;;;;;;;;;;;19.10;99.90;;;;;;5110200;28;20175;-70
2023/08/27 07:15:19;;;;;;;;;;;19.10;99.90;;;;;;5110771;28;20205;-68
2023/08/27 07:17:46;;;;;;;;;;;19.00;99.90;;;;;;5113674;28;20138;-72
2023/08/27 07:20:13;;;;;;;;;;;18.90;99.90;;;;;;5113988;28;20540;-69
2023/08/27 07:22:40;;;;;;;;;;;18.90;99.90;;;;;;5113553;28;20583;-69
2023/08/27 07:25:09;;;;;;;;;;;18.70;99.90;;;;;;5113840;28;20160;-70
2023/08/27 07:27:36;;;;;;;;;;;18.70;99.90;;;;;;5113438;28;20556;-69
2023/08/27 07:30:03;;;;;;;;;;;18.60;99.90;;;;;;5114573;28;20176;-70
2023/08/27 07:32:30;;;;;;;;;;;18.60;99.90;;;;;;5114231;28;20669;-68
2023/08/27 07:34:57;;;;;;;;;;;18.50;99.90;;;;;;5114162;28;20140;-69
2023/08/27 07:37:24;;;;;;;;;;;18.40;99.90;;;;;;5113955;28;20143;-68
2023/08/27 07:39:50;;;;;;;;;;;18.30;99.90;;;;;;5114132;28;20610;-68
2023/08/27 07:42:17;;;;;;;;;;;18.20;99.90;;;;;;5113332;28;20247;-68
2023/08/27 07:44:44;;;;;;;;;;;18.20;99.90;;;;;;5114087;28;20289;-69
2023/08/27 07:47:11;;;;;;;;;;;18.10;99.90;;;;;;5114222;28;20220;-69
2023/08/27 07:49:38;;;;;;;;;;;18.00;99.90;;;;;;5112389;28;20164;-69
2023/08/27 07:52:05;;;;;;;;;;;17.90;99.90;;;;;;5113331;28;20171;-69
2023/08/27 07:54:32;;;;;;;;;;;17.90;99.90;;;;;;5113706;28;20158;-70
2023/08/27 07:56:58;;;;;;;;;;;17.80;99.90;;;;;;5114846;28;20190;-68
2023/08/27 07:59:26;;;;;;;;;;;17.70;99.90;;;;;;5115326;28;20146;-71
2023/08/27 08:01:53;;;;;;;;;;;17.70;99.90;;;;;;5115520;28;20676;-71
2023/08/27 08:04:19;;;;;;;;;;;17.70;99.90;;;;;;5114373;28;20628;-72
2023/08/27 08:06:46;;;;;;;;;;;17.60;99.90;;;;;;5096416;28;20214;-70
2023/08/27 08:09:14;;;;;;;;;;;17.50;99.90;;;;;;5115096;28;20190;-70
2023/08/27 08:11:41;;;;;;;;;;;17.50;99.90;;;;;;5115365;28;20169;-71
2023/08/27 08:14:07;;;;;;;;;;;17.50;99.90;;;;;;5114538;28;20212;-72
2023/08/27 08:16:34;;;;;;;;;;;17.50;99.90;;;;;;5115167;28;20235;-71
2023/08/27 08:19:01;;;;;;;;;;;17.40;99.90;;;;;;5114838;28;20205;-71
2023/08/27 08:21:27;;;;;;;;;;;17.20;99.90;;;;;;5114827;28;20194;-71
2023/08/27 08:23:54;;;;;;;;;;;17.20;99.90;;;;;;5114719;28;20144;-72
2023/08/27 08:26:21;;;;;;;;;;;17.10;99.90;;;;;;5115136;28;20157;-70
2023/08/27 08:28:48;;;;;;;;;;;17.10;99.90;;;;;;5114630;28;20138;-71
2023/08/27 08:31:14;;;;;;;;;;;17.10;99.90;;;;;;5114809;28;20148;-72
2023/08/27 08:33:41;;;;;;;;;;;17.00;99.90;;;;;;5092745;28;20155;-72
2023/08/27 08:36:08;;;;;;;;;;;17.20;99.90;;;;;;5093724;28;20167;-72
2023/08/27 08:38:35;;;;;;;;;;;17.10;99.90;;;;;;5111894;28;20170;-71
2023/08/27 08:41:02;;;;;;;;;;;17.00;99.90;;;;;;5112174;28;20191;-71
2023/08/27 08:43:47;;;;;;;;;;;17.00;99.90;;;;;;5119287;27;20241;-72
2023/08/27 08:46:17;;;;;;;;;;;16.90;99.90;;;;;;5133046;27;20149;-72
2023/08/27 08:48:43;;;;;;;;;;;16.90;99.90;;;;;;5132213;27;20740;-71
2023/08/27 08:51:11;;;;;;;;;;;16.80;99.90;;;;;;5132801;27;20172;-71
2023/08/27 08:53:42;;;;;;;;;;;16.80;99.90;;;;;;5114085;27;20519;-70
2023/08/27 08:56:15;;;;;;;;;;;16.90;99.90;;;;;;5111303;28;20242;-71
2023/08/27 08:58:44;;;;;;;;;;;16.90;99.90;;;;;;5112032;28;20133;-71
2023/08/27 09:01:11;;;;;;;;;;;16.90;99.90;;;;;;5111633;28;20562;-71
2023/08/27 09:03:38;;;;;;;;;;;16.90;99.90;;;;;;5110819;28;20161;-72
2023/08/27 09:06:05;;;;;;;;;;;16.90;99.90;;;;;;5111648;28;20218;-71
2023/08/27 09:08:32;;;;;;;;;;;16.80;99.90;;;;;;5112046;28;20144;-71
2023/08/27 09:10:59;;;;;;;;;;;16.70;99.90;;;;;;5111241;28;20612;-71
2023/08/27 09:13:26;;;;;;;;;;;16.70;99.90;;;;;;5093341;28;20257;-69
2023/08/27 09:15:53;;;;;;;;;;;16.70;99.90;;;;;;5111537;28;20267;-71
2023/08/27 09:18:19;;;;;;;;;;;16.70;99.90;;;;;;5112580;28;20608;-71
2023/08/27 09:20:46;;;;;;;;;;;16.60;99.90;;;;;;5113513;28;20251;-72
2023/08/27 09:23:16;;;;;;;;;;;16.60;99.90;;;;;;5113769;28;20154;-72
2023/08/27 09:25:43;;;;;;;;;;;16.50;99.90;;;;;;5113413;28;20605;-72
2023/08/27 09:28:10;;;;;;;;;;;16.50;99.90;;;;;;5113857;28;20194;-71
2023/08/27 09:30:37;;;;;;;;;;;16.60;99.90;;;;;;5114189;28;20236;-71
2023/08/27 09:33:07;;;;;;;;;;;16.60;99.90;;;;;;5113366;28;20147;-72
2023/08/27 09:35:40;;;;;;;;;;;16.50;99.90;;;;;;5114062;28;20666;-71
2023/08/27 09:38:07;;;;;;;;;;;16.40;99.90;;;;;;5112805;28;20168;-71
2023/08/27 09:40:34;;;;;;;;;;;16.30;99.90;;;;;;5112282;28;20142;-70
2023/08/27 09:43:04;;;;;;;;;;;16.40;99.90;;;;;;5113630;28;20156;-70
2023/08/27 09:45:31;;;;;;;;;;;16.30;99.90;;;;;;5095094;28;20561;-69
2023/08/27 09:47:58;;;;;;;;;;;16.40;99.90;;;;;;5113407;28;20144;-69
2023/08/27 09:50:27;;;;;;;;;;;16.30;99.90;;;;;;5113164;28;20220;-68
2023/08/27 09:53:04;;;;;;;;;;;16.20;99.90;;;;;;5095226;28;20157;-69
2023/08/27 09:55:32;;;;;;;;;;;16.00;99.90;;;;;;5113743;28;20167;-68
2023/08/27 09:57:59;;;;;;;;;;;16.00;99.90;;;;;;5113239;28;20323;-70
2023/08/27 10:00:27;;;;;;;;;;;15.90;99.90;;;;;;5113114;28;20199;-68
2023/08/27 10:02:54;;;;;;;;;;;15.90;99.90;;;;;;5112701;28;20196;-68
2023/08/27 10:05:31;;;;;;;;;;;15.80;99.90;;;;;;5112914;28;20228;-69
2023/08/27 10:08:05;;;;;;;;;;;15.80;99.90;;;;;;5095004;28;20143;-69
2023/08/27 10:10:34;;;;;;;;;;;15.70;99.90;;;;;;5113119;28;20147;-67
2023/08/27 10:13:01;;;;;;;;;;;15.60;99.90;;;;;;5094897;28;20171;-69
2023/08/27 10:15:31;;;;;;;;;;;15.60;99.90;;;;;;5113069;28;20232;-68
2023/08/27 10:17:58;;;;;;;;;;;15.50;99.90;;;;;;5113086;28;20149;-69
2023/08/27 10:20:25;;;;;;;;;;;15.50;99.90;;;;;;5094557;28;20285;-69
2023/08/27 10:22:52;;;;;;;;;;;15.30;99.90;;;;;;5112885;28;20155;-68
2023/08/27 10:25:18;;;;;;;;;;;15.30;99.90;;;;;;5112948;28;20260;-70
2023/08/27 10:27:47;;;;;;;;;;;15.30;99.90;;;;;;5095016;28;20158;-70
2023/08/27 10:30:15;;;;;;;;;;;15.10;99.90;;;;;;5094740;28;20641;-69
2023/08/27 10:32:41;;;;;;;;;;;15.10;99.90;;;;;;5112542;28;20503;-69
2023/08/27 10:35:09;;;;;;;;;;;15.00;99.90;;;;;;5113280;28;20176;-69
2023/08/27 10:37:38;;;;;;;;;;;15.00;99.90;;;;;;5112829;28;20141;-70
2023/08/27 10:40:08;;;;;;;;;;;15.00;99.90;;;;;;5112589;28;20177;-67
2023/08/27 10:42:39;;;;;;;;;;;14.90;99.90;;;;;;5112384;28;20571;-69
2023/08/27 10:45:16;;;;;;;;;;;14.90;99.90;;;;;;5111878;28;20171;-69
2023/08/27 10:47:43;;;;;;;;;;;14.80;99.90;;;;;;5112161;28;20145;-68
2023/08/27 10:50:21;;;;;;;;;;;14.70;99.90;;;;;;5112273;28;20190;-69
2023/08/27 10:52:49;;;;;;;;;;;14.60;99.90;;;;;;5115804;28;20183;-68
2023/08/27 10:55:20;;;;;;;;;;;14.60;99.90;;;;;;5116965;28;20165;-70
2023/08/27 10:57:47;;;;;;;;;;;14.50;99.90;;;;;;5116646;28;20212;-68
2023/08/27 11:00:14;;;;;;;;;;;14.40;99.90;;;;;;5116191;28;20584;-70
2023/08/27 11:02:59;;;;;;;;;;;14.40;99.90;;;;;;5116134;28;20173;-68
2023/08/27 11:05:29;;;;;;;;;;;14.30;99.90;;;;;;5116031;28;20565;-69
2023/08/27 11:07:59;;;;;;;;;;;14.30;99.90;;;;;;5107765;28;20148;-68
2023/08/27 11:10:32;;;;;;;;;;;14.20;99.90;;;;;;5115615;28;20199;-70
2023/08/27 11:12:59;;;;;;;;;;;14.10;99.90;;;;;;5116034;28;20173;-69
2023/08/27 11:15:32;;;;;;;;;;;14.10;99.90;;;;;;5115716;28;20164;-68
2023/08/27 11:18:19;;;;;;;;;;;14.10;99.90;;;;;;5115833;28;20530;-67
2023/08/27 11:20:46;;;;;;;;;;;14.00;99.90;;;;;;5115132;28;20320;-67
2023/08/27 11:23:13;;;;;;;;;;;13.80;99.90;;;;;;5116107;28;20151;-66
2023/08/27 11:25:42;;;;;;;;;;;13.80;99.90;;;;;;5097139;28;20149;-67
2023/08/27 11:28:09;;;;;;;;;;;13.80;99.90;;;;;;5097256;28;20181;-67
2023/08/27 11:30:36;;;;;;;;;;;13.70;99.90;;;;;;5097792;28;20187;-68
2023/08/27 11:33:03;;;;;;;;;;;13.70;99.90;;;;;;5097992;28;20162;-67
2023/08/27 11:35:31;;;;;;;;;;;13.70;99.90;;;;;;5097653;28;20204;-69
2023/08/27 11:37:58;;;;;;;;;;;13.70;99.90;;;;;;5097268;28;20199;-68
2023/08/27 11:40:26;;;;;;;;;;;13.70;99.90;;;;;;5115796;28;20149;-68
2023/08/27 11:42:55;;;;;;;;;;;13.60;99.90;;;;;;5115720;28;20238;-66
2023/08/27 11:45:32;;;;;;;;;;;13.60;99.90;;;;;;5115952;28;20152;-68
2023/08/27 11:48:02;;;;;;;;;;;13.50;99.90;;;;;;5097775;28;20150;-67
2023/08/27 11:50:30;;;;;;;;;;;13.50;99.90;;;;;;5115749;28;20214;-68
2023/08/27 11:52:57;;;;;;;;;;;13.40;99.90;;;;;;5097228;28;20243;-67
2023/08/27 11:55:24;;;;;;;;;;;13.40;99.90;;;;;;5097686;28;20491;-70
2023/08/27 11:57:53;;;;;;;;;;;13.40;99.90;;;;;;5116392;28;20158;-69
2023/08/27 12:00:20;;;;;;;;;;;13.30;99.90;;;;;;5116037;28;20623;-67
2023/08/27 12:02:47;;;;;;;;;;;13.20;99.90;;;;;;5114539;28;20649;-69
2023/08/27 12:05:15;;;;;;;;;;;13.20;99.90;;;;;;5115782;28;20470;-68
2023/08/27 12:07:42;;;;;;;;;;;13.20;99.90;;;;;;5115651;28;20183;-70
2023/08/27 12:10:10;;;;;;;;;;;13.10;99.90;;;;;;5120203;27;20183;-69
2023/08/27 12:12:41;;;;;;;;;;;13.10;99.90;;;;;;5132869;27;20525;-68
2023/08/27 12:15:08;;;;;;;;;;;13.10;99.90;;;;;;5117756;27;20014;-69
2023/08/27 12:17:37;;;;;;;;;;;13.00;99.90;;;;;;5117467;27;20666;-70
2023/08/27 12:20:07;;;;;;;;;;;13.00;99.90;;;;;;5135348;27;20184;-69
2023/08/27 12:22:43;;;;;;;;;;;13.10;99.90;;;;;;5135570;27;20366;-71
2023/08/27 12:25:11;;;;;;;;;;;13.10;99.90;;;;;;5127771;27;20140;-69
2023/08/27 12:27:40;;;;;;;;;;;13.00;99.90;;;;;;5114755;28;20164;-71
2023/08/27 12:30:08;;;;;;;;;;;13.00;99.90;;;;;;5115054;28;20225;-68
2023/08/27 12:32:35;;;;;;;;;;;12.90;99.90;;;;;;5110478;28;20481;-70
2023/08/27 12:35:02;;;;;;;;;;;12.80;99.90;;;;;;5095057;28;20136;-72
2023/08/27 12:37:29;;;;;;;;;;;12.80;99.90;;;;;;5108449;28;20155;-68
2023/08/27 12:39:56;;;;;;;;;;;12.80;99.90;;;;;;5114742;28;20471;-69
2023/08/27 12:42:25;;;;;;;;;;;12.80;99.90;;;;;;5114615;28;20239;-69
2023/08/27 12:44:52;;;;;;;;;;;12.80;99.90;;;;;;5096002;28;20157;-70
2023/08/27 12:47:19;;;;;;;;;;;12.70;99.90;;;;;;5095796;28;20317;-71
2023/08/27 12:49:46;;;;;;;;;;;12.60;99.90;;;;;;5114515;28;20271;-68
2023/08/27 12:52:13;;;;;;;;;;;12.60;99.90;;;;;;5114621;28;20238;-70
2023/08/27 12:54:41;;;;;;;;;;;12.60;99.90;;;;;;5114137;28;20152;-72
2023/08/27 12:57:08;;;;;;;;;;;12.60;99.90;;;;;;5114110;28;20245;-70
2023/08/27 12:59:35;;;;;;;;;;;12.60;99.90;;;;;;5114563;28;20521;-70
2023/08/27 13:02:02;;;;;;;;;;;12.60;99.90;;;;;;5098950;28;20179;-68
2023/08/27 13:04:29;;;;;;;;;;;12.60;99.90;;;;;;5113544;28;20663;-71
2023/08/27 13:06:56;;;;;;;;;;;12.50;99.90;;;;;;5114214;28;20228;-71
2023/08/27 13:09:23;;;;;;;;;;;12.50;99.90;;;;;;5114550;28;20147;-70
2023/08/27 13:11:50;;;;;;;;;;;12.40;99.90;;;;;;5095231;28;20668;-70
2023/08/27 13:14:17;;;;;;;;;;;12.40;99.90;;;;;;5129190;27;20117;-71
2023/08/27 13:16:46;;;;;;;;;;;12.40;99.90;;;;;;5113167;28;20157;-69
2023/08/27 13:19:14;;;;;;;;;;;12.30;99.90;;;;;;5095756;28;20200;-71
2023/08/27 13:21:44;;;;;;;;;;;12.30;99.90;;;;;;5095871;28;20526;-69
2023/08/27 13:24:11;;;;;;;;;;;12.30;99.90;;;;;;5113947;28;20261;-71
2023/08/27 13:26:38;;;;;;;;;;;12.30;99.90;;;;;;5094836;28;20147;-68
2023/08/27 13:29:05;;;;;;;;;;;12.30;99.90;;;;;;5113917;28;20183;-70
2023/08/27 13:31:32;;;;;;;;;;;12.30;99.90;;;;;;5113290;28;20169;-70
2023/08/27 13:33:59;;;;;;;;;;;12.30;99.90;;;;;;5113265;28;20612;-67
2023/08/27 13:36:26;;;;;;;;;;;12.20;99.90;;;;;;5113912;28;20236;-71
2023/08/27 13:38:53;;;;;;;;;;;12.20;99.90;;;;;;5113514;28;20141;-70
2023/08/27 13:41:23;;;;;;;;;;;12.20;99.90;;;;;;5113171;28;20524;-69
2023/08/27 13:43:50;;;;;;;;;;;12.20;99.90;;;;;;5114082;28;20188;-69
2023/08/27 13:46:17;;;;;;;;;;;12.20;99.90;;;;;;5095244;28;20012;-68
2023/08/27 13:48:47;;;;;;;;;;;12.20;99.90;;;;;;5113941;28;20160;-69
2023/08/27 13:51:15;;;;;;;;;;;12.20;99.90;;;;;;5113342;28;20222;-69
2023/08/27 13:53:42;;;;;;;;;;;12.20;99.90;;;;;;5113160;28;20018;-69
2023/08/27 13:56:09;;;;;;;;;;;12.20;99.90;;;;;;5112854;28;20215;-69
2023/08/27 13:58:35;;;;;;;;;;;12.20;99.90;;;;;;5113296;28;20159;-69
2023/08/27 14:01:05;;;;;;;;;;;12.20;99.90;;;;;;5112477;28;20166;-70
2023/08/27 14:03:32;;;;;;;;;;;12.20;99.90;;;;;;5112748;28;20133;-67
2023/08/27 14:05:59;;;;;;;;;;;12.20;99.90;;;;;;5112776;28;20209;-68
2023/08/27 14:08:27;;;;;;;;;;;12.10;99.90;;;;;;5094767;28;20155;-68
2023/08/27 14:10:54;;;;;;;;;;;12.10;99.90;;;;;;5112540;28;20125;-67
2023/08/27 14:13:22;;;;;;;;;;;12.10;99.90;;;;;;5112905;28;20146;-69
2023/08/27 14:15:49;;;;;;;;;;;12.10;99.90;;;;;;5094622;28;20161;-68
2023/08/27 14:18:16;;;;;;;;;;;12.10;99.90;;;;;;5094511;28;20226;-67
2023/08/27 14:20:43;;;;;;;;;;;12.10;99.90;;;;;;5112109;28;20191;-68
2023/08/27 14:23:10;;;;;;;;;;;12.00;99.90;;;;;;5113107;28;20011;-68